Time;durP1;ratioP1;P1;durP2;ratioP2;P2;SDS_P1;SDS_P2;PMS_P1;PMS_P2;Temp;Humidity;BMP_temperature;BMP_pressure;BME280_temperature;BME280_humidity;BME280_pressure;Samples;Min_cycle;Max_cycle;Signal;HPM_P1;HPM_P2
2023/12/15 00:01:19;;;;;;;8.43;6.33;;;;;;;4.63;100.00;99177.06;5094755;28;20231;-73
2023/12/15 00:03:45;;;;;;;7.70;6.27;;;;;;;4.63;100.00;99176.22;5094576;28;20220;-72
2023/12/15 00:06:11;;;;;;;8.50;6.47;;;;;;;4.60;100.00;99171.25;5094494;28;20196;-72
2023/12/15 00:08:38;;;;;;;6.83;6.00;;;;;;;4.59;100.00;99169.63;5094496;28;20204;-72
2023/12/15 00:11:05;;;;;;;8.33;6.30;;;;;;;4.55;100.00;99178.81;5094184;28;20208;-72
2023/12/15 00:13:31;;;;;;;8.83;7.03;;;;;;;4.59;100.00;99178.34;5094450;28;20202;-72
2023/12/15 00:15:57;;;;;;;9.23;6.17;;;;;;;4.59;100.00;99182.78;5094426;28;20204;-72
2023/12/15 00:18:24;;;;;;;10.20;6.60;;;;;;;4.59;100.00;99193.31;5094355;28;20210;-72
2023/12/15 00:20:50;;;;;;;8.40;6.30;;;;;;;4.47;100.00;99187.47;5094054;28;20220;-72
2023/12/15 00:23:16;;;;;;;8.77;6.23;;;;;;;4.54;100.00;99201.69;5094171;28;20204;-72
2023/12/15 00:25:43;;;;;;;8.73;6.03;;;;;;;4.59;100.00;99198.59;5094051;28;20210;-72
2023/12/15 00:28:09;;;;;;;8.07;6.60;;;;;;;4.55;100.00;99198.06;5094268;28;20207;-72
2023/12/15 00:30:35;;;;;;;7.63;6.10;;;;;;;4.53;100.00;99199.22;5094130;28;20242;-72
2023/12/15 00:33:02;;;;;;;8.50;6.53;;;;;;;4.46;100.00;99204.25;5094204;28;20215;-72
2023/12/15 00:35:28;;;;;;;9.33;7.00;;;;;;;4.46;100.00;99206.88;5093993;28;20245;-72
2023/12/15 00:37:55;;;;;;;9.73;7.13;;;;;;;4.27;100.00;99208.84;5093831;28;20295;-72
2023/12/15 00:40:22;;;;;;;9.80;7.03;;;;;;;4.38;100.00;99214.72;5093947;28;20219;-72
2023/12/15 00:42:49;;;;;;;8.43;6.60;;;;;;;4.35;100.00;99214.19;5093588;28;20571;-72
2023/12/15 00:45:15;;;;;;;9.27;7.10;;;;;;;4.34;100.00;99220.44;5093551;28;20224;-72
2023/12/15 00:47:41;;;;;;;10.80;7.77;;;;;;;4.34;100.00;99223.09;5093715;28;20219;-72
2023/12/15 00:50:08;;;;;;;10.00;6.57;;;;;;;4.27;100.00;99228.13;5093830;28;20227;-72
2023/12/15 00:52:34;;;;;;;9.80;7.47;;;;;;;4.25;100.00;99234.53;5093861;28;20211;-72
2023/12/15 00:55:02;;;;;;;7.67;6.27;;;;;;;4.25;100.00;99231.88;5093490;28;20210;-72
2023/12/15 00:57:28;;;;;;;8.33;5.93;;;;;;;4.22;100.00;99237.44;5093831;28;20208;-72
2023/12/15 00:59:56;;;;;;;8.77;6.20;;;;;;;4.14;100.00;99240.00;5093382;28;20746;-72
2023/12/15 01:02:23;;;;;;;9.37;6.17;;;;;;;4.17;100.00;99244.97;5093772;28;20210;-72
2023/12/15 01:04:49;;;;;;;7.33;6.33;;;;;;;4.20;100.00;99242.03;5093684;28;20224;-72
2023/12/15 01:07:15;;;;;;;8.10;5.90;;;;;;;4.27;100.00;99246.56;5093656;28;20215;-72
2023/12/15 01:09:42;;;;;;;10.93;6.43;;;;;;;4.27;100.00;99248.34;5093646;28;20242;-72
2023/12/15 01:12:08;;;;;;;8.13;6.13;;;;;;;4.30;100.00;99253.31;5093725;28;20257;-72
2023/12/15 01:14:34;;;;;;;7.67;5.80;;;;;;;4.24;100.00;99257.38;5093706;28;20569;-72
2023/12/15 01:17:01;;;;;;;7.13;5.77;;;;;;;4.20;100.00;99265.72;5093296;28;20682;-72
2023/12/15 01:19:27;;;;;;;8.10;5.80;;;;;;;4.28;100.00;99271.88;5093514;28;20586;-72
2023/12/15 01:21:53;;;;;;;8.03;6.33;;;;;;;4.32;100.00;99267.97;5093240;28;20671;-72
2023/12/15 01:24:20;;;;;;;7.53;5.97;;;;;;;4.30;100.00;99271.75;5093520;28;20224;-72
2023/12/15 01:26:46;;;;;;;9.43;6.10;;;;;;;4.29;100.00;99283.25;5093533;28;20203;-72
2023/12/15 01:29:12;;;;;;;7.97;5.93;;;;;;;4.22;100.00;99279.56;5093416;28;20220;-72
2023/12/15 01:31:39;;;;;;;9.67;6.17;;;;;;;4.28;100.00;99300.00;5094862;28;20210;-72
2023/12/15 01:34:05;;;;;;;8.33;6.07;;;;;;;4.32;100.00;99301.38;5097578;28;20204;-72
2023/12/15 01:36:31;;;;;;;7.53;5.53;;;;;;;4.24;100.00;99314.44;5097556;28;20210;-72
2023/12/15 01:38:58;;;;;;;7.90;6.10;;;;;;;4.25;100.00;99316.94;5097313;28;20230;-72
2023/12/15 01:41:24;;;;;;;8.40;6.20;;;;;;;4.26;100.00;99315.97;5097159;28;20239;-72
2023/12/15 01:43:51;;;;;;;8.87;6.13;;;;;;;4.36;100.00;99315.88;5097239;28;20204;-72
2023/12/15 01:46:17;;;;;;;8.43;6.67;;;;;;;4.29;100.00;99325.38;5097330;28;20207;-72
2023/12/15 01:48:43;;;;;;;10.33;6.97;;;;;;;4.27;100.00;99322.03;5096872;28;20212;-72
2023/12/15 01:51:10;;;;;;;9.47;6.50;;;;;;;4.28;100.00;99327.16;5097224;28;20577;-72
2023/12/15 01:53:36;;;;;;;9.97;7.73;;;;;;;4.07;100.00;99323.97;5097182;28;20204;-72
2023/12/15 01:56:04;;;;;;;9.67;6.70;;;;;;;4.21;100.00;99323.47;5097042;28;20200;-72
2023/12/15 01:58:30;;;;;;;6.77;5.60;;;;;;;4.19;100.00;99324.59;5097054;28;20199;-72
2023/12/15 02:00:57;;;;;;;5.80;5.20;;;;;;;4.13;100.00;99323.41;5096912;28;20235;-72
2023/12/15 02:03:23;;;;;;;5.63;5.13;;;;;;;4.21;100.00;99322.66;5096999;28;20211;-72
2023/12/15 02:05:49;;;;;;;7.73;6.13;;;;;;;4.21;100.00;99325.28;5096842;28;20235;-72
2023/12/15 02:08:16;;;;;;;8.13;6.33;;;;;;;4.22;100.00;99335.66;5096428;28;20709;-72
2023/12/15 02:10:42;;;;;;;8.00;6.00;;;;;;;4.14;100.00;99346.09;5096455;28;20690;-72
2023/12/15 02:13:08;;;;;;;8.07;6.73;;;;;;;4.19;100.00;99345.63;5096819;28;20206;-72
2023/12/15 02:15:35;;;;;;;9.00;6.90;;;;;;;4.25;100.00;99350.34;5096515;28;20207;-72
2023/12/15 02:18:02;;;;;;;10.07;6.70;;;;;;;4.28;100.00;99339.50;5096421;28;20214;-72
2023/12/15 02:20:28;;;;;;;10.20;7.33;;;;;;;4.22;100.00;99338.31;5096251;28;20703;-72
2023/12/15 02:22:57;;;;;;;10.57;7.67;;;;;;;4.11;100.00;99340.31;5096640;28;20204;-72
2023/12/15 02:25:23;;;;;;;11.60;7.93;;;;;;;3.96;100.00;99337.34;5096513;28;20621;-73
2023/12/15 02:27:50;;;;;;;9.97;7.73;;;;;;;3.84;100.00;99346.38;5096160;28;20667;-73
2023/12/15 02:30:16;;;;;;;10.93;7.57;;;;;;;3.75;100.00;99339.34;5096389;28;20223;-73
2023/12/15 02:32:42;;;;;;;11.37;7.47;;;;;;;3.75;100.00;99346.44;5096557;28;20203;-73
2023/12/15 02:35:11;;;;;;;9.43;7.80;;;;;;;3.81;100.00;99340.59;5096094;28;20659;-73
2023/12/15 02:37:37;;;;;;;7.97;6.83;;;;;;;3.78;100.00;99349.59;5096307;28;20257;-73
2023/12/15 02:40:05;;;;;;;8.70;6.87;;;;;;;3.65;100.00;99349.09;5096143;28;20220;-73
2023/12/15 02:42:31;;;;;;;9.73;7.40;;;;;;;3.57;100.00;99350.78;5096102;28;20207;-73
2023/12/15 02:44:57;;;;;;;8.43;6.90;;;;;;;3.55;100.00;99358.81;5096148;28;20230;-73
2023/12/15 02:47:24;;;;;;;8.23;7.03;;;;;;;3.56;100.00;99360.47;5096003;28;20215;-72
2023/12/15 02:49:51;;;;;;;10.00;8.17;;;;;;;3.63;100.00;99369.47;5095765;28;20223;-72
2023/12/15 02:52:17;;;;;;;8.27;6.80;;;;;;;3.72;100.00;99373.00;5096009;28;20204;-72
2023/12/15 02:54:43;;;;;;;11.13;7.90;;;;;;;3.71;100.00;99372.19;5096067;28;20566;-72
2023/12/15 02:57:10;;;;;;;9.67;6.90;;;;;;;3.84;100.00;99371.88;5096779;28;20571;-72
2023/12/15 02:59:36;;;;;;;9.47;7.17;;;;;;;3.81;100.00;99367.72;5095820;28;20227;-73
2023/12/15 03:02:02;;;;;;;9.03;7.30;;;;;;;3.89;100.00;99373.06;5095842;28;20234;-73
2023/12/15 03:04:29;;;;;;;8.53;6.93;;;;;;;3.78;100.00;99377.69;5095449;28;20311;-73
2023/12/15 03:06:56;;;;;;;9.50;7.43;;;;;;;3.81;100.00;99380.03;5095739;28;20208;-73
2023/12/15 03:09:22;;;;;;;9.77;7.70;;;;;;;3.89;100.00;99386.22;5095578;28;20232;-73
2023/12/15 03:11:49;;;;;;;9.23;7.87;;;;;;;3.91;100.00;99386.09;5095638;28;20253;-73
2023/12/15 03:14:15;;;;;;;9.37;7.40;;;;;;;3.90;100.00;99392.34;5095601;28;20577;-73
2023/12/15 03:16:42;;;;;;;7.93;7.07;;;;;;;3.97;100.00;99394.22;5095589;28;20203;-73
2023/12/15 03:19:08;;;;;;;8.53;7.20;;;;;;;3.92;100.00;99399.09;5095477;28;20220;-73
2023/12/15 03:21:35;;;;;;;8.43;7.27;;;;;;;3.98;100.00;99403.78;5095192;28;20208;-73
2023/12/15 03:24:01;;;;;;;8.43;7.53;;;;;;;4.03;100.00;99409.44;5095021;28;20200;-73
2023/12/15 03:26:27;;;;;;;9.47;6.53;;;;;;;4.03;100.00;99408.63;5095033;28;20540;-73
2023/12/15 03:28:54;;;;;;;8.83;6.93;;;;;;;4.07;100.00;99410.81;5094833;28;20688;-73
2023/12/15 03:31:20;;;;;;;8.53;6.63;;;;;;;4.06;100.00;99417.03;5095259;28;20204;-73
2023/12/15 03:33:47;;;;;;;7.33;6.13;;;;;;;4.08;100.00;99409.00;5095199;28;20214;-73
2023/12/15 03:36:13;;;;;;;9.43;6.30;;;;;;;4.10;100.00;99414.94;5095269;28;20206;-73
2023/12/15 03:38:39;;;;;;;8.53;6.83;;;;;;;4.13;100.00;99419.94;5094918;28;20204;-73
2023/12/15 03:41:06;;;;;;;9.40;6.90;;;;;;;4.20;100.00;99426.28;5094965;28;20208;-74
2023/12/15 03:43:32;;;;;;;7.83;6.43;;;;;;;4.18;100.00;99429.06;5094887;28;20206;-73
2023/12/15 03:46:01;;;;;;;6.60;6.00;;;;;;;4.15;100.00;99431.97;5094316;28;20314;-73
2023/12/15 03:48:27;;;;;;;9.37;6.00;;;;;;;4.18;100.00;99426.44;5094428;28;20211;-73
2023/12/15 03:50:53;;;;;;;6.80;6.13;;;;;;;4.18;100.00;99436.09;5094615;28;20230;-73
2023/12/15 03:53:20;;;;;;;7.83;6.10;;;;;;;4.15;100.00;99433.75;5094719;28;20215;-73
2023/12/15 03:55:46;;;;;;;7.97;6.00;;;;;;;4.10;100.00;99438.63;5094150;28;20208;-73
2023/12/15 03:58:12;;;;;;;7.77;5.77;;;;;;;4.18;100.00;99431.69;5094603;28;20211;-73
2023/12/15 04:00:39;;;;;;;7.67;5.87;;;;;;;4.19;100.00;99435.13;5094561;28;20232;-73
2023/12/15 04:03:05;;;;;;;7.70;5.80;;;;;;;4.22;100.00;99429.59;5094042;28;20682;-73
2023/12/15 04:05:32;;;;;;;10.07;6.40;;;;;;;4.19;100.00;99430.72;5094310;28;20250;-73
2023/12/15 04:07:59;;;;;;;7.60;6.23;;;;;;;4.24;100.00;99433.72;5094313;28;20207;-73
2023/12/15 04:10:25;;;;;;;8.03;5.97;;;;;;;4.28;100.00;99435.09;5094879;28;20259;-73
2023/12/15 04:12:51;;;;;;;6.97;5.57;;;;;;;4.20;100.00;99442.88;5094202;28;20211;-73
2023/12/15 04:15:19;;;;;;;6.47;5.47;;;;;;;4.29;100.00;99457.00;5094176;28;20207;-73
2023/12/15 04:17:45;;;;;;;7.77;5.03;;;;;;;4.29;100.00;99451.72;5094108;28;20207;-73
2023/12/15 04:20:12;;;;;;;5.60;5.10;;;;;;;4.27;100.00;99459.78;5093953;28;20230;-73
2023/12/15 04:22:38;;;;;;;6.63;5.80;;;;;;;4.30;100.00;99467.34;5094146;28;20200;-73
2023/12/15 04:25:05;;;;;;;7.10;5.90;;;;;;;4.32;100.00;99467.22;5094037;28;20231;-73
2023/12/15 04:27:31;;;;;;;7.57;5.80;;;;;;;4.33;100.00;99466.22;5094181;28;20207;-73
2023/12/15 04:29:58;;;;;;;6.40;5.80;;;;;;;4.24;100.00;99483.75;5093964;28;20227;-73
2023/12/15 04:32:24;;;;;;;9.23;6.37;;;;;;;4.26;100.00;99473.06;5093912;28;20210;-73
2023/12/15 04:34:51;;;;;;;6.37;5.53;;;;;;;4.32;100.00;99475.13;5093321;28;20261;-73
2023/12/15 04:37:17;;;;;;;6.83;5.37;;;;;;;4.40;100.00;99476.06;5093520;28;20203;-73
2023/12/15 04:39:46;;;;;;;6.50;5.80;;;;;;;4.38;100.00;99483.25;5093362;28;20227;-73
2023/12/15 04:42:13;;;;;;;5.73;5.13;;;;;;;4.33;100.00;99487.28;5093562;28;20220;-73
2023/12/15 04:44:39;;;;;;;6.97;5.50;;;;;;;4.30;100.00;99490.25;5093715;28;20204;-73
2023/12/15 04:47:06;;;;;;;7.23;5.80;;;;;;;4.33;100.00;99482.88;5093658;28;20211;-73
2023/12/15 04:49:32;;;;;;;7.00;5.17;;;;;;;4.25;100.00;99488.03;5093533;28;20728;-73
2023/12/15 04:51:59;;;;;;;6.30;5.00;;;;;;;4.31;100.00;99490.09;5093965;28;20200;-73
2023/12/15 04:54:26;;;;;;;6.70;5.43;;;;;;;4.32;100.00;99494.38;5093583;28;20200;-73
2023/12/15 04:56:52;;;;;;;7.80;5.77;;;;;;;4.40;100.00;99493.66;5094206;28;20204;-73
2023/12/15 04:59:18;;;;;;;5.93;5.33;;;;;;;4.37;100.00;99492.16;5093336;28;20223;-73
2023/12/15 05:01:45;;;;;;;6.43;5.37;;;;;;;4.34;100.00;99492.44;5092890;28;20204;-73
2023/12/15 05:04:11;;;;;;;6.63;5.17;;;;;;;4.33;100.00;99497.81;5093681;28;20200;-73
2023/12/15 05:06:37;;;;;;;6.37;5.30;;;;;;;4.27;100.00;99504.53;5092234;28;20231;-73
2023/12/15 05:09:04;;;;;;;5.57;4.97;;;;;;;4.30;100.00;99498.13;5093426;28;20226;-73
2023/12/15 05:11:34;;;;;;;5.90;5.30;;;;;;;4.31;100.00;99499.78;5093020;28;20248;-73
2023/12/15 05:14:01;;;;;;;5.80;5.30;;;;;;;4.22;100.00;99501.50;5093508;28;20211;-73
2023/12/15 05:16:27;;;;;;;5.77;5.13;;;;;;;4.25;100.00;99503.00;5093482;28;20204;-73
2023/12/15 05:18:53;;;;;;;6.10;5.50;;;;;;;4.20;100.00;99510.50;5093364;28;20210;-74
2023/12/15 05:21:20;;;;;;;6.40;5.23;;;;;;;4.25;100.00;99513.53;5093235;28;20204;-74
2023/12/15 05:23:46;;;;;;;5.83;5.23;;;;;;;4.23;100.00;99518.94;5093179;28;20200;-74
2023/12/15 05:26:13;;;;;;;6.13;4.90;;;;;;;4.27;100.00;99530.84;5093074;28;20231;-73
2023/12/15 05:28:39;;;;;;;7.27;4.97;;;;;;;4.30;100.00;99529.72;5092943;28;20662;-73
2023/12/15 05:31:07;;;;;;;5.17;4.50;;;;;;;4.25;100.00;99535.41;5093045;28;20208;-73
2023/12/15 05:33:34;;;;;;;5.97;5.30;;;;;;;4.25;100.00;99537.22;5093071;28;20663;-73
2023/12/15 05:36:00;;;;;;;5.43;4.90;;;;;;;4.31;100.00;99544.53;5093024;28;20200;-73
2023/12/15 05:38:25;;;;;;;6.07;4.73;;;;;;;4.46;100.00;99551.00;5093040;28;20208;-73
2023/12/15 05:40:52;;;;;;;5.47;4.90;;;;;;;4.40;100.00;99551.59;5093202;28;20234;-73
2023/12/15 05:43:19;;;;;;;5.83;5.20;;;;;;;4.32;100.00;99557.56;5092840;28;20298;-74
2023/12/15 05:45:45;;;;;;;5.67;4.67;;;;;;;4.36;100.00;99564.22;5092821;28;20220;-74
2023/12/15 05:48:12;;;;;;;6.40;5.40;;;;;;;4.30;100.00;99583.19;5092743;28;20212;-74
2023/12/15 05:50:38;;;;;;;7.40;5.03;;;;;;;4.37;100.00;99586.94;5092706;28;20224;-73
2023/12/15 05:53:04;;;;;;;6.33;5.40;;;;;;;4.36;100.00;99584.44;5092570;28;20204;-73
2023/12/15 05:55:31;;;;;;;6.40;5.70;;;;;;;4.46;100.00;99590.50;5093752;28;20204;-73
2023/12/15 05:57:57;;;;;;;7.37;6.00;;;;;;;4.46;100.00;99593.97;5093008;28;20202;-73
2023/12/15 06:00:23;;;;;;;5.73;5.13;;;;;;;4.47;100.00;99594.81;5092733;28;20715;-73
2023/12/15 06:02:50;;;;;;;5.67;5.00;;;;;;;4.45;100.00;99599.38;5092540;28;20571;-73
2023/12/15 06:05:16;;;;;;;5.53;4.90;;;;;;;4.47;100.00;99605.34;5092664;28;20228;-73
2023/12/15 06:07:42;;;;;;;6.17;5.17;;;;;;;4.40;100.00;99605.09;5092329;28;20210;-74
2023/12/15 06:10:10;;;;;;;5.67;5.17;;;;;;;4.40;100.00;99612.97;5093389;28;20264;-74
2023/12/15 06:12:36;;;;;;;7.17;5.63;;;;;;;4.46;100.00;99611.56;5092816;28;20200;-74
2023/12/15 06:15:03;;;;;;;6.10;5.43;;;;;;;4.43;100.00;99622.41;5092391;28;20204;-74
2023/12/15 06:17:30;;;;;;;8.53;5.20;;;;;;;4.46;100.00;99624.72;5093592;28;20269;-74
2023/12/15 06:19:56;;;;;;;7.53;5.40;;;;;;;4.45;100.00;99626.56;5096272;28;20220;-74
2023/12/15 06:22:22;;;;;;;5.93;5.33;;;;;;;4.47;100.00;99629.84;5096321;28;20207;-74
2023/12/15 06:24:49;;;;;;;7.93;6.00;;;;;;;4.46;100.00;99636.09;5096178;28;20200;-74
2023/12/15 06:27:15;;;;;;;6.90;5.90;;;;;;;4.52;100.00;99646.06;5096073;28;20593;-74
2023/12/15 06:29:42;;;;;;;6.03;5.43;;;;;;;4.48;100.00;99646.50;5096073;28;20227;-74
2023/12/15 06:32:10;;;;;;;7.30;6.23;;;;;;;4.55;100.00;99637.03;5095828;28;20203;-74
2023/12/15 06:34:37;;;;;;;6.83;5.40;;;;;;;4.53;100.00;99644.28;5095982;28;20204;-74
2023/12/15 06:37:04;;;;;;;6.50;5.90;;;;;;;4.52;100.00;99642.63;5095653;28;20199;-74
2023/12/15 06:39:30;;;;;;;6.77;6.03;;;;;;;4.53;100.00;99654.81;5095708;28;20219;-74
2023/12/15 06:41:56;;;;;;;7.30;6.43;;;;;;;4.50;100.00;99647.19;5096506;28;20211;-74
2023/12/15 06:44:23;;;;;;;7.33;6.10;;;;;;;4.43;100.00;99652.19;5095497;28;20204;-74
2023/12/15 06:46:49;;;;;;;6.43;5.83;;;;;;;4.47;100.00;99660.66;5077133;28;20638;-74
2023/12/15 06:49:17;;;;;;;8.03;6.40;;;;;;;4.43;100.00;99654.81;5095444;28;20232;-74
2023/12/15 06:51:44;;;;;;;7.00;5.63;;;;;;;4.48;100.00;99662.31;5095729;28;20230;-74
2023/12/15 06:54:11;;;;;;;7.90;6.50;;;;;;;4.47;100.00;99673.81;5095377;28;20261;-74
2023/12/15 06:56:40;;;;;;;6.33;5.73;;;;;;;4.48;100.00;99673.66;5095584;28;20199;-74
2023/12/15 06:59:06;;;;;;;7.17;6.13;;;;;;;4.58;100.00;99681.53;5095497;28;20295;-74
2023/12/15 07:01:33;;;;;;;8.03;6.30;;;;;;;4.49;100.00;99680.59;5095456;28;20210;-74
2023/12/15 07:03:59;;;;;;;8.20;6.17;;;;;;;4.47;100.00;99682.53;5095539;28;20210;-74
2023/12/15 07:06:25;;;;;;;7.20;6.43;;;;;;;4.43;100.00;99681.16;5095572;28;20231;-74
2023/12/15 07:08:54;;;;;;;6.27;5.30;;;;;;;4.55;100.00;99690.56;5095276;28;20204;-74
2023/12/15 07:11:21;;;;;;;8.97;5.97;;;;;;;4.48;100.00;99691.28;5095144;28;20211;-74
2023/12/15 07:13:47;;;;;;;6.60;6.00;;;;;;;4.54;100.00;99699.44;5095418;28;20208;-74
2023/12/15 07:16:15;;;;;;;9.47;5.97;;;;;;;4.50;100.00;99698.06;5095991;28;20677;-74
2023/12/15 07:18:41;;;;;;;7.77;6.50;;;;;;;4.50;100.00;99698.06;5094901;28;20208;-74
2023/12/15 07:21:08;;;;;;;7.37;6.13;;;;;;;4.58;100.00;99705.25;5094849;28;20663;-74
2023/12/15 07:23:34;;;;;;;7.73;6.13;;;;;;;4.55;100.00;99706.38;5094969;28;20210;-74
2023/12/15 07:26:01;;;;;;;8.53;6.53;;;;;;;4.56;100.00;99712.47;5094822;28;20235;-74
2023/12/15 07:28:28;;;;;;;8.13;6.27;;;;;;;4.54;100.00;99709.13;5094492;28;20230;-74
2023/12/15 07:30:54;;;;;;;7.63;6.60;;;;;;;4.56;100.00;99718.56;5094370;28;20220;-74
2023/12/15 07:33:21;;;;;;;8.13;6.03;;;;;;;4.53;100.00;99726.72;5094727;28;20203;-74
2023/12/15 07:35:47;;;;;;;7.83;6.50;;;;;;;4.54;100.00;99722.31;5094868;28;20206;-74
2023/12/15 07:38:13;;;;;;;9.23;6.77;;;;;;;4.57;100.00;99732.56;5095253;28;20200;-74
2023/12/15 07:40:40;;;;;;;7.00;6.30;;;;;;;4.62;100.00;99739.06;5094755;28;20243;-74
2023/12/15 07:43:07;;;;;;;8.77;6.70;;;;;;;4.62;100.00;99736.41;5094452;28;20207;-74
2023/12/15 07:45:33;;;;;;;8.13;6.73;;;;;;;4.55;100.00;99737.13;5094269;28;20224;-74
2023/12/15 07:47:59;;;;;;;7.13;6.43;;;;;;;4.60;100.00;99740.16;5094203;28;20216;-74
2023/12/15 07:50:26;;;;;;;7.67;6.33;;;;;;;4.51;100.00;99738.38;5094400;28;20263;-74
2023/12/15 07:52:52;;;;;;;9.00;6.70;;;;;;;4.62;100.00;99741.69;5094397;28;20662;-74
2023/12/15 07:55:18;;;;;;;8.23;6.47;;;;;;;4.54;100.00;99741.59;5094142;28;20226;-74
2023/12/15 07:57:45;;;;;;;8.67;6.97;;;;;;;4.48;100.00;99739.50;5094089;28;20698;-74
2023/12/15 08:00:12;;;;;;;7.73;6.57;;;;;;;4.49;100.00;99751.72;5093943;28;20220;-74
2023/12/15 08:02:38;;;;;;;7.53;6.70;;;;;;;4.44;100.00;99753.91;5094231;28;20214;-74
2023/12/15 08:05:05;;;;;;;11.10;7.00;;;;;;;4.50;100.00;99757.78;5094219;28;20203;-74
2023/12/15 08:07:32;;;;;;;8.20;6.80;;;;;;;4.47;100.00;99758.91;5094172;28;20222;-74
2023/12/15 08:09:58;;;;;;;7.80;5.87;;;;;;;4.53;100.00;99757.53;5093684;28;20592;-74
2023/12/15 08:12:25;;;;;;;8.50;6.57;;;;;;;4.55;100.00;99766.09;5093622;28;20659;-74
2023/12/15 08:14:51;;;;;;;7.70;6.50;;;;;;;4.58;100.00;99771.09;5093943;28;20296;-74
2023/12/15 08:17:17;;;;;;;6.90;6.27;;;;;;;4.56;100.00;99768.59;5094164;28;20200;-74
2023/12/15 08:19:44;;;;;;;8.43;6.60;;;;;;;4.63;100.00;99767.09;5093697;28;20707;-74
2023/12/15 08:22:11;;;;;;;8.23;6.37;;;;;;;4.70;100.00;99767.34;5093769;28;20662;-74
2023/12/15 08:24:37;;;;;;;8.33;7.43;;;;;;;4.70;100.00;99755.00;5094045;28;20209;-74
2023/12/15 08:27:04;;;;;;;8.17;6.93;;;;;;;4.63;100.00;99764.44;5093871;28;20242;-74
2023/12/15 08:29:30;;;;;;;7.83;6.87;;;;;;;4.61;100.00;99768.19;5093669;28;20235;-74
2023/12/15 08:31:57;;;;;;;8.93;7.40;;;;;;;4.71;100.00;99777.72;5094059;28;20210;-74
2023/12/15 08:34:26;;;;;;;7.97;7.13;;;;;;;4.74;100.00;99776.66;5093288;28;20206;-74
2023/12/15 08:36:52;;;;;;;9.73;7.50;;;;;;;4.78;100.00;99784.13;5092819;28;20211;-74
2023/12/15 08:39:18;;;;;;;8.00;7.10;;;;;;;4.77;100.00;99777.19;5092976;28;20224;-74
2023/12/15 08:41:45;;;;;;;8.23;7.43;;;;;;;4.78;100.00;99791.16;5093579;28;20567;-74
2023/12/15 08:44:11;;;;;;;10.20;7.30;;;;;;;4.79;100.00;99800.75;5093275;28;20208;-74
2023/12/15 08:46:37;;;;;;;8.53;6.73;;;;;;;4.75;100.00;99800.19;5093498;28;20219;-74
2023/12/15 08:49:04;;;;;;;9.33;7.33;;;;;;;4.86;100.00;99807.13;5093157;28;20228;-74
2023/12/15 08:51:30;;;;;;;8.23;6.60;;;;;;;4.89;100.00;99812.13;5093547;28;20207;-74
2023/12/15 08:53:56;;;;;;;8.60;6.93;;;;;;;4.92;100.00;99814.44;5093806;28;20574;-74
2023/12/15 08:56:23;;;;;;;7.73;6.70;;;;;;;4.89;100.00;99815.56;5093606;28;20317;-74
2023/12/15 08:58:49;;;;;;;8.37;7.20;;;;;;;4.96;100.00;99818.47;5093303;28;20670;-74
2023/12/15 09:01:15;;;;;;;7.30;6.60;;;;;;;4.95;100.00;99825.56;5092785;28;20574;-74
2023/12/15 09:03:42;;;;;;;9.63;7.03;;;;;;;5.05;100.00;99829.03;5093221;28;20207;-74
2023/12/15 09:06:11;;;;;;;8.37;7.03;;;;;;;5.08;100.00;99835.81;5093212;28;20227;-74
2023/12/15 09:08:38;;;;;;;7.97;7.00;;;;;;;5.15;100.00;99826.38;5093435;28;20211;-74
2023/12/15 09:11:06;;;;;;;8.33;7.37;;;;;;;5.19;100.00;99835.63;5093243;28;20207;-74
2023/12/15 09:13:33;;;;;;;7.90;7.00;;;;;;;5.25;100.00;99833.28;5093122;28;20218;-74
2023/12/15 09:16:00;;;;;;;8.07;6.73;;;;;;;5.25;100.00;99821.91;5093652;28;20200;-74
2023/12/15 09:18:26;;;;;;;7.63;6.90;;;;;;;5.30;100.00;99825.75;5093348;28;20572;-74
2023/12/15 09:20:53;;;;;;;8.20;7.40;;;;;;;5.41;100.00;99833.53;5092709;28;20650;-74
2023/12/15 09:23:19;;;;;;;8.10;7.30;;;;;;;5.40;100.00;99837.13;5092384;28;20204;-74
2023/12/15 09:25:49;;;;;;;8.63;7.50;;;;;;;5.33;100.00;99836.03;5093055;28;20207;-74
2023/12/15 09:28:16;;;;;;;9.33;7.00;;;;;;;5.39;100.00;99847.81;5092987;28;20210;-74
2023/12/15 09:30:43;;;;;;;8.40;6.93;;;;;;;5.43;100.00;99843.94;5092847;28;20219;-74
2023/12/15 09:33:09;;;;;;;11.23;7.77;;;;;;;5.46;100.00;99854.19;5092940;28;20215;-74
2023/12/15 09:35:36;;;;;;;7.83;6.80;;;;;;;5.58;100.00;99848.59;5093285;28;20573;-74
2023/12/15 09:38:03;;;;;;;8.07;7.27;;;;;;;5.53;100.00;99853.50;5093123;28;20196;-74
2023/12/15 09:40:31;;;;;;;9.90;7.13;;;;;;;5.64;100.00;99853.28;5092737;28;20232;-74
2023/12/15 09:42:58;;;;;;;7.53;6.80;;;;;;;5.72;100.00;99852.56;5092485;28;20207;-74
2023/12/15 09:45:24;;;;;;;8.83;7.60;;;;;;;5.72;100.00;99850.78;5092607;28;20666;-74
2023/12/15 09:47:51;;;;;;;9.47;7.20;;;;;;;5.72;100.00;99849.94;5093027;28;20224;-74
2023/12/15 09:50:19;;;;;;;7.60;6.53;;;;;;;5.78;100.00;99858.09;5093394;28;20311;-74
2023/12/15 09:52:46;;;;;;;7.73;6.93;;;;;;;5.76;100.00;99859.22;5094797;28;20208;-74
2023/12/15 09:55:13;;;;;;;8.10;7.27;;;;;;;5.90;100.00;99856.13;5097100;28;20204;-74
2023/12/15 09:57:40;;;;;;;7.47;6.70;;;;;;;6.04;100.00;99850.38;5096761;28;20565;-74
2023/12/15 10:00:08;;;;;;;8.00;7.20;;;;;;;5.95;100.00;99851.25;5096439;28;20227;-74
2023/12/15 10:02:35;;;;;;;7.90;7.10;;;;;;;6.08;100.00;99844.66;5096790;28;20199;-74
2023/12/15 10:05:02;;;;;;;8.37;7.00;;;;;;;5.99;100.00;99847.34;5096778;28;20215;-72
2023/12/15 10:07:29;;;;;;;7.40;6.67;;;;;;;5.99;100.00;99857.91;5096650;28;20262;-72
2023/12/15 10:09:56;;;;;;;8.53;7.33;;;;;;;6.04;100.00;99868.84;5096223;28;20724;-72
2023/12/15 10:12:23;;;;;;;9.70;7.33;;;;;;;6.21;100.00;99868.09;5096434;28;20212;-72
2023/12/15 10:14:48;;;;;;;9.47;7.33;;;;;;;6.26;100.00;99865.81;5096665;28;20204;-74
2023/12/15 10:17:15;;;;;;;7.80;7.03;;;;;;;6.34;100.00;99868.56;5096367;28;20681;-74
2023/12/15 10:19:41;;;;;;;7.83;7.03;;;;;;;6.44;100.00;99867.53;5096214;28;20345;-74
2023/12/15 10:22:07;;;;;;;9.33;7.50;;;;;;;6.49;100.00;99873.19;5096516;28;20210;-74
2023/12/15 10:24:35;;;;;;;8.53;7.53;;;;;;;6.54;100.00;99880.66;5096555;28;20207;-74
2023/12/15 10:27:03;;;;;;;10.20;7.47;;;;;;;6.55;100.00;99884.97;5096119;28;20224;-74
2023/12/15 10:29:30;;;;;;;6.77;5.93;;;;;;;6.52;100.00;99880.00;5095664;28;20300;-74
2023/12/15 10:31:57;;;;;;;8.13;6.80;;;;;;;6.62;100.00;99878.09;5095747;28;20561;-74
2023/12/15 10:34:26;;;;;;;8.87;7.23;;;;;;;6.70;100.00;99888.78;5096114;28;20564;-74
2023/12/15 10:36:53;;;;;;;6.57;5.97;;;;;;;6.77;100.00;99890.66;5095807;28;20667;-75
2023/12/15 10:39:21;;;;;;;7.30;6.50;;;;;;;6.84;100.00;99881.13;5095436;28;20730;-74
2023/12/15 10:41:49;;;;;;;6.80;6.20;;;;;;;6.84;100.00;99886.41;5095974;28;20243;-74
2023/12/15 10:44:16;;;;;;;7.07;6.27;;;;;;;6.87;100.00;99877.38;5095754;28;20204;-74
2023/12/15 10:46:44;;;;;;;8.70;6.50;;;;;;;6.92;100.00;99894.44;5096657;28;20563;-74
2023/12/15 10:49:11;;;;;;;7.67;6.43;;;;;;;6.91;100.00;99887.47;5095490;28;20328;-74
2023/12/15 10:51:42;;;;;;;7.67;5.77;;;;;;;6.89;100.00;99900.03;5095558;28;20547;-74
2023/12/15 10:54:09;;;;;;;7.70;6.10;;;;;;;6.78;100.00;99896.78;5095508;28;20208;-74
2023/12/15 10:56:38;;;;;;;6.30;5.70;;;;;;;6.87;100.00;99888.75;5095746;28;20201;-74
2023/12/15 10:59:06;;;;;;;8.03;5.93;;;;;;;7.03;100.00;99888.94;5095564;28;20226;-74
2023/12/15 11:01:35;;;;;;;6.40;5.70;;;;;;;7.01;100.00;99888.22;5095435;28;20212;-72
2023/12/15 11:04:02;;;;;;;6.40;5.73;;;;;;;7.06;100.00;99893.06;5095566;28;20210;-72
2023/12/15 11:06:31;;;;;;;7.53;6.00;;;;;;;7.18;100.00;99889.19;5095164;28;20585;-74
2023/12/15 11:09:00;;;;;;;6.10;5.17;;;;;;;7.12;100.00;99898.59;5095483;28;20316;-74
2023/12/15 11:11:29;;;;;;;5.37;4.87;;;;;;;7.30;100.00;99895.91;5095445;28;20210;-74
2023/12/15 11:14:02;;;;;;;6.93;4.83;;;;;;;7.33;100.00;99891.13;5095426;28;20200;-74
2023/12/15 11:16:34;;;;;;;4.33;3.93;;;;;;;7.15;100.00;99890.34;5095268;28;20561;-74
2023/12/15 11:19:01;;;;;;;6.27;4.07;;;;;;;7.27;100.00;99898.84;5095369;28;20315;-75
2023/12/15 11:21:28;;;;;;;4.23;3.83;;;;;;;7.21;100.00;99905.63;5095060;28;20208;-74
2023/12/15 11:24:04;;;;;;;4.07;3.47;;;;;;;7.22;100.00;99912.56;5095206;28;20230;-74
2023/12/15 11:26:37;;;;;;;4.10;3.70;;;;;;;7.22;100.00;99922.28;5095315;28;20231;-74
2023/12/15 11:29:08;;;;;;;4.10;3.70;;;;;;;7.32;100.00;99921.22;5094996;28;20231;-74
2023/12/15 11:31:36;;;;;;;5.60;3.70;;;;;;;7.27;100.00;99914.72;5095103;28;20200;-74